Cave Creek, Arizona
Current Conditions -  °F | °C
As of 12:53 PM on Tuesday 25 Nov 2014 (Local Time) from KDVT Reporting Station
Clear Clear  
Wind Chill: 63°   Ceiling: Unl
Heat Index: 63°   Visibility: 10mi
Dew Point: -5°   Wind: 5mph
Humidity: 6%   Direction: 240°WSW
Pressure: 30.37"   Gusts: NA
Location:  33.83°N, 111.97°W
Report Text: KDVT 251953Z 24004KT 10SM CLR 17/M21 A3037 RMK AO2 SLP275 T01721206
Loading
Personal Weather Stations






























Interactive Weather Map New forecast layout! Learn more

10-Day Weather Forecast

Advertisements
Track Severe Weather on mobile